sensor_id;sensor_type;location;lat;lon;timestamp;pressure;altitude;pressure_sealevel;temperature
65316;BMP280;51920;53.952;10.292;2024-02-23T00:00:57;97284.50;;;10.30
65316;BMP280;51920;53.952;10.292;2024-02-23T00:03:23;97285.59;;;10.23
65316;BMP280;51920;53.952;10.292;2024-02-23T00:05:50;97291.78;;;10.14
65316;BMP280;51920;53.952;10.292;2024-02-23T00:08:17;97307.75;;;10.03
65316;BMP280;51920;53.952;10.292;2024-02-23T00:10:45;97309.06;;;9.84
65316;BMP280;51920;53.952;10.292;2024-02-23T00:13:13;97318.69;;;9.85
65316;BMP280;51920;53.952;10.292;2024-02-23T00:15:39;97305.78;;;9.80
65316;BMP280;51920;53.952;10.292;2024-02-23T00:18:06;97329.16;;;9.83
65316;BMP280;51920;53.952;10.292;2024-02-23T00:20:34;97313.59;;;9.68
65316;BMP280;51920;53.952;10.292;2024-02-23T00:23:02;97323.38;;;9.66
65316;BMP280;51920;53.952;10.292;2024-02-23T00:25:29;97316.13;;;9.72
65316;BMP280;51920;53.952;10.292;2024-02-23T00:27:56;97327.38;;;9.80
65316;BMP280;51920;53.952;10.292;2024-02-23T00:30:23;97327.72;;;9.63
65316;BMP280;51920;53.952;10.292;2024-02-23T00:32:49;97331.97;;;9.55
65316;BMP280;51920;53.952;10.292;2024-02-23T00:35:16;97363.47;;;9.49
65316;BMP280;51920;53.952;10.292;2024-02-23T00:37:43;97355.50;;;9.45
65316;BMP280;51920;53.952;10.292;2024-02-23T00:40:11;97354.00;;;9.35
65316;BMP280;51920;53.952;10.292;2024-02-23T00:42:38;97371.13;;;9.41
65316;BMP280;51920;53.952;10.292;2024-02-23T00:45:05;97362.28;;;9.41
65316;BMP280;51920;53.952;10.292;2024-02-23T00:47:32;97353.28;;;9.35
65316;BMP280;51920;53.952;10.292;2024-02-23T00:49:59;97371.28;;;9.47
65316;BMP280;51920;53.952;10.292;2024-02-23T00:52:26;97375.47;;;9.39
65316;BMP280;51920;53.952;10.292;2024-02-23T00:54:53;97401.28;;;9.30
65316;BMP280;51920;53.952;10.292;2024-02-23T00:57:20;97440.53;;;9.13
65316;BMP280;51920;53.952;10.292;2024-02-23T00:59:54;97430.78;;;8.88
65316;BMP280;51920;53.952;10.292;2024-02-23T01:02:20;97439.53;;;8.61
65316;BMP280;51920;53.952;10.292;2024-02-23T01:04:47;97442.16;;;8.52
65316;BMP280;51920;53.952;10.292;2024-02-23T01:07:14;97445.94;;;8.54
65316;BMP280;51920;53.952;10.292;2024-02-23T01:09:41;97441.44;;;8.51
65316;BMP280;51920;53.952;10.292;2024-02-23T01:12:08;97465.94;;;8.44
65316;BMP280;51920;53.952;10.292;2024-02-23T01:14:35;97463.66;;;8.33
65316;BMP280;51920;53.952;10.292;2024-02-23T01:17:02;97484.63;;;8.29
65316;BMP280;51920;53.952;10.292;2024-02-23T01:19:29;97472.00;;;8.26
65316;BMP280;51920;53.952;10.292;2024-02-23T01:21:56;97510.44;;;8.17
65316;BMP280;51920;53.952;10.292;2024-02-23T01:24:27;97512.69;;;8.19
65316;BMP280;51920;53.952;10.292;2024-02-23T01:26:56;97537.50;;;8.14
65316;BMP280;51920;53.952;10.292;2024-02-23T01:29:25;97550.13;;;8.17
65316;BMP280;51920;53.952;10.292;2024-02-23T01:31:53;97554.03;;;8.03
65316;BMP280;51920;53.952;10.292;2024-02-23T01:34:21;97558.78;;;7.99
65316;BMP280;51920;53.952;10.292;2024-02-23T01:36:48;97569.63;;;7.86
65316;BMP280;51920;53.952;10.292;2024-02-23T01:39:15;97589.66;;;7.85
65316;BMP280;51920;53.952;10.292;2024-02-23T01:41:42;97590.75;;;7.75
65316;BMP280;51920;53.952;10.292;2024-02-23T01:44:11;97587.66;;;7.63
65316;BMP280;51920;53.952;10.292;2024-02-23T01:46:38;97600.34;;;7.76
65316;BMP280;51920;53.952;10.292;2024-02-23T01:49:05;97602.72;;;7.74
65316;BMP280;51920;53.952;10.292;2024-02-23T01:51:34;97609.63;;;7.75
65316;BMP280;51920;53.952;10.292;2024-02-23T01:54:01;97611.13;;;7.63
65316;BMP280;51920;53.952;10.292;2024-02-23T01:56:30;97627.72;;;7.36
65316;BMP280;51920;53.952;10.292;2024-02-23T01:58:59;97622.84;;;7.31
65316;BMP280;51920;53.952;10.292;2024-02-23T02:01:26;97635.25;;;7.41
65316;BMP280;51920;53.952;10.292;2024-02-23T02:03:53;97657.53;;;7.41
65316;BMP280;51920;53.952;10.292;2024-02-23T02:06:20;97652.91;;;7.42
65316;BMP280;51920;53.952;10.292;2024-02-23T02:08:46;97662.41;;;7.46
65316;BMP280;51920;53.952;10.292;2024-02-23T02:11:14;97638.50;;;7.36
65316;BMP280;51920;53.952;10.292;2024-02-23T02:13:41;97681.00;;;7.41
65316;BMP280;51920;53.952;10.292;2024-02-23T02:16:08;97693.63;;;7.44
65316;BMP280;51920;53.952;10.292;2024-02-23T02:18:36;97699.75;;;7.32
65316;BMP280;51920;53.952;10.292;2024-02-23T02:21:03;97703.19;;;7.32
65316;BMP280;51920;53.952;10.292;2024-02-23T02:23:30;97724.28;;;7.21
65316;BMP280;51920;53.952;10.292;2024-02-23T02:25:57;97737.38;;;7.19
65316;BMP280;51920;53.952;10.292;2024-02-23T02:28:25;97736.63;;;7.18
65316;BMP280;51920;53.952;10.292;2024-02-23T02:30:52;97771.75;;;7.27
65316;BMP280;51920;53.952;10.292;2024-02-23T02:33:22;97758.84;;;7.22
65316;BMP280;51920;53.952;10.292;2024-02-23T02:35:49;97767.63;;;7.10
65316;BMP280;51920;53.952;10.292;2024-02-23T02:38:19;97765.88;;;7.03
65316;BMP280;51920;53.952;10.292;2024-02-23T02:40:46;97785.97;;;6.99
65316;BMP280;51920;53.952;10.292;2024-02-23T02:43:12;97795.63;;;6.96
65316;BMP280;51920;53.952;10.292;2024-02-23T02:45:39;97797.91;;;6.98
65316;BMP280;51920;53.952;10.292;2024-02-23T02:48:07;97798.19;;;6.87
65316;BMP280;51920;53.952;10.292;2024-02-23T02:50:34;97803.22;;;6.69
65316;BMP280;51920;53.952;10.292;2024-02-23T02:53:01;97816.75;;;6.65
65316;BMP280;51920;53.952;10.292;2024-02-23T02:55:28;97817.66;;;6.58
65316;BMP280;51920;53.952;10.292;2024-02-23T02:57:55;97825.78;;;6.38
65316;BMP280;51920;53.952;10.292;2024-02-23T03:00:22;97835.31;;;6.43
65316;BMP280;51920;53.952;10.292;2024-02-23T03:02:49;97834.72;;;6.35
65316;BMP280;51920;53.952;10.292;2024-02-23T03:05:16;97846.00;;;6.46
65316;BMP280;51920;53.952;10.292;2024-02-23T03:07:43;97855.34;;;6.38
65316;BMP280;51920;53.952;10.292;2024-02-23T03:10:10;97858.91;;;6.35
65316;BMP280;51920;53.952;10.292;2024-02-23T03:12:37;97877.97;;;6.41
65316;BMP280;51920;53.952;10.292;2024-02-23T03:15:04;97877.31;;;6.37
65316;BMP280;51920;53.952;10.292;2024-02-23T03:17:32;97879.25;;;6.36
65316;BMP280;51920;53.952;10.292;2024-02-23T03:19:59;97887.25;;;6.20
65316;BMP280;51920;53.952;10.292;2024-02-23T03:22:26;97889.78;;;6.27
65316;BMP280;51920;53.952;10.292;2024-02-23T03:24:53;97893.97;;;6.28
65316;BMP280;51920;53.952;10.292;2024-02-23T03:27:27;97897.94;;;6.23
65316;BMP280;51920;53.952;10.292;2024-02-23T03:29:54;97915.53;;;6.24
65316;BMP280;51920;53.952;10.292;2024-02-23T03:32:21;97913.56;;;6.29
65316;BMP280;51920;53.952;10.292;2024-02-23T03:34:48;97918.66;;;6.23
65316;BMP280;51920;53.952;10.292;2024-02-23T03:37:15;97929.31;;;6.26
65316;BMP280;51920;53.952;10.292;2024-02-23T03:39:41;97930.84;;;6.28
65316;BMP280;51920;53.952;10.292;2024-02-23T03:42:08;97934.34;;;6.24
65316;BMP280;51920;53.952;10.292;2024-02-23T03:44:35;97944.22;;;6.31
65316;BMP280;51920;53.952;10.292;2024-02-23T03:47:02;97958.53;;;6.24
65316;BMP280;51920;53.952;10.292;2024-02-23T03:49:29;97974.66;;;6.24
65316;BMP280;51920;53.952;10.292;2024-02-23T03:51:56;97974.94;;;6.30
65316;BMP280;51920;53.952;10.292;2024-02-23T03:54:23;97967.72;;;6.27
65316;BMP280;51920;53.952;10.292;2024-02-23T03:56:50;97972.19;;;6.34
65316;BMP280;51920;53.952;10.292;2024-02-23T03:59:16;97975.44;;;6.25
65316;BMP280;51920;53.952;10.292;2024-02-23T04:01:43;97986.19;;;6.25
65316;BMP280;51920;53.952;10.292;2024-02-23T04:04:11;97993.22;;;6.19
65316;BMP280;51920;53.952;10.292;2024-02-23T04:06:38;97997.53;;;6.13
65316;BMP280;51920;53.952;10.292;2024-02-23T04:09:05;98013.53;;;6.20
65316;BMP280;51920;53.952;10.292;2024-02-23T04:11:32;98007.19;;;6.30
65316;BMP280;51920;53.952;10.292;2024-02-23T04:13:59;98020.00;;;6.22
65316;BMP280;51920;53.952;10.292;2024-02-23T04:16:27;98006.28;;;6.17
65316;BMP280;51920;53.952;10.292;2024-02-23T04:18:54;98016.28;;;6.16
65316;BMP280;51920;53.952;10.292;2024-02-23T04:21:23;98027.28;;;6.02
65316;BMP280;51920;53.952;10.292;2024-02-23T04:23:50;98040.94;;;6.11
65316;BMP280;51920;53.952;10.292;2024-02-23T04:26:17;98043.91;;;6.17
65316;BMP280;51920;53.952;10.292;2024-02-23T04:28:45;98040.13;;;6.14
65316;BMP280;51920;53.952;10.292;2024-02-23T04:31:11;98043.03;;;6.23
65316;BMP280;51920;53.952;10.292;2024-02-23T04:33:39;98055.25;;;6.04
65316;BMP280;51920;53.952;10.292;2024-02-23T04:36:06;98068.16;;;6.13
65316;BMP280;51920;53.952;10.292;2024-02-23T04:38:35;98079.84;;;6.03
65316;BMP280;51920;53.952;10.292;2024-02-23T04:41:03;98085.81;;;6.11
65316;BMP280;51920;53.952;10.292;2024-02-23T04:43:33;98084.22;;;6.17
65316;BMP280;51920;53.952;10.292;2024-02-23T04:46:00;98098.47;;;6.14
65316;BMP280;51920;53.952;10.292;2024-02-23T04:48:27;98091.56;;;6.13
65316;BMP280;51920;53.952;10.292;2024-02-23T04:50:54;98113.25;;;6.02
65316;BMP280;51920;53.952;10.292;2024-02-23T04:53:21;98111.84;;;5.94
65316;BMP280;51920;53.952;10.292;2024-02-23T04:55:48;98117.91;;;5.98
65316;BMP280;51920;53.952;10.292;2024-02-23T04:58:15;98122.59;;;5.94
65316;BMP280;51920;53.952;10.292;2024-02-23T05:00:42;98130.56;;;5.97
65316;BMP280;51920;53.952;10.292;2024-02-23T05:03:09;98131.81;;;5.93
65316;BMP280;51920;53.952;10.292;2024-02-23T05:05:37;98130.56;;;5.97
65316;BMP280;51920;53.952;10.292;2024-02-23T05:08:04;98140.16;;;5.98
65316;BMP280;51920;53.952;10.292;2024-02-23T05:10:31;98147.69;;;6.07
65316;BMP280;51920;53.952;10.292;2024-02-23T05:12:58;98136.03;;;5.94
65316;BMP280;51920;53.952;10.292;2024-02-23T05:15:25;98145.66;;;5.91
65316;BMP280;51920;53.952;10.292;2024-02-23T05:17:52;98153.06;;;6.07
65316;BMP280;51920;53.952;10.292;2024-02-23T05:20:19;98150.81;;;6.05
65316;BMP280;51920;53.952;10.292;2024-02-23T05:22:46;98154.66;;;6.04
65316;BMP280;51920;53.952;10.292;2024-02-23T05:25:12;98165.16;;;5.95
65316;BMP280;51920;53.952;10.292;2024-02-23T05:27:39;98173.91;;;5.99
65316;BMP280;51920;53.952;10.292;2024-02-23T05:30:07;98179.41;;;5.92
65316;BMP280;51920;53.952;10.292;2024-02-23T05:32:33;98183.91;;;5.99
65316;BMP280;51920;53.952;10.292;2024-02-23T05:35:00;98184.66;;;5.99
65316;BMP280;51920;53.952;10.292;2024-02-23T05:37:28;98190.03;;;5.99
65316;BMP280;51920;53.952;10.292;2024-02-23T05:39:55;98201.28;;;6.18
65316;BMP280;51920;53.952;10.292;2024-02-23T05:42:21;98196.50;;;6.05
65316;BMP280;51920;53.952;10.292;2024-02-23T05:44:49;98200.72;;;6.03
65316;BMP280;51920;53.952;10.292;2024-02-23T05:47:16;98195.34;;;6.03
65316;BMP280;51920;53.952;10.292;2024-02-23T05:49:43;98208.38;;;6.04
65316;BMP280;51920;53.952;10.292;2024-02-23T05:52:09;98196.94;;;6.00
65316;BMP280;51920;53.952;10.292;2024-02-23T05:54:36;98208.47;;;5.97
65316;BMP280;51920;53.952;10.292;2024-02-23T05:57:03;98208.44;;;6.01
65316;BMP280;51920;53.952;10.292;2024-02-23T05:59:31;98205.31;;;6.06
65316;BMP280;51920;53.952;10.292;2024-02-23T06:01:58;98203.75;;;6.05
65316;BMP280;51920;53.952;10.292;2024-02-23T06:04:25;98203.81;;;6.01
65316;BMP280;51920;53.952;10.292;2024-02-23T06:06:53;98203.00;;;6.04
65316;BMP280;51920;53.952;10.292;2024-02-23T06:09:20;98205.66;;;6.08
65316;BMP280;51920;53.952;10.292;2024-02-23T06:11:47;98225.41;;;5.94
65316;BMP280;51920;53.952;10.292;2024-02-23T06:14:14;98215.00;;;5.96
65316;BMP280;51920;53.952;10.292;2024-02-23T06:16:41;98227.75;;;5.92
65316;BMP280;51920;53.952;10.292;2024-02-23T06:19:08;98234.75;;;5.86
65316;BMP280;51920;53.952;10.292;2024-02-23T06:21:35;98244.75;;;5.82
65316;BMP280;51920;53.952;10.292;2024-02-23T06:24:03;98260.78;;;5.89
65316;BMP280;51920;53.952;10.292;2024-02-23T06:26:31;98257.25;;;5.65
65316;BMP280;51920;53.952;10.292;2024-02-23T06:28:58;98262.59;;;5.65
65316;BMP280;51920;53.952;10.292;2024-02-23T06:31:25;98264.19;;;5.62
65316;BMP280;51920;53.952;10.292;2024-02-23T06:33:52;98262.69;;;5.61
65316;BMP280;51920;53.952;10.292;2024-02-23T06:36:19;98262.59;;;5.65
65316;BMP280;51920;53.952;10.292;2024-02-23T06:38:46;98269.56;;;5.62
65316;BMP280;51920;53.952;10.292;2024-02-23T06:41:13;98285.56;;;5.70
65316;BMP280;51920;53.952;10.292;2024-02-23T06:43:40;98279.47;;;5.65
65316;BMP280;51920;53.952;10.292;2024-02-23T06:46:07;98296.25;;;5.73
65316;BMP280;51920;53.952;10.292;2024-02-23T06:48:36;98309.31;;;5.75
65316;BMP280;51920;53.952;10.292;2024-02-23T06:51:04;98323.03;;;5.80
65316;BMP280;51920;53.952;10.292;2024-02-23T06:53:31;98317.19;;;5.89
65316;BMP280;51920;53.952;10.292;2024-02-23T06:55:58;98335.38;;;5.78
65316;BMP280;51920;53.952;10.292;2024-02-23T06:58:25;98337.22;;;5.81
65316;BMP280;51920;53.952;10.292;2024-02-23T07:00:52;98346.38;;;5.87
65316;BMP280;51920;53.952;10.292;2024-02-23T07:03:19;98360.56;;;5.88
65316;BMP280;51920;53.952;10.292;2024-02-23T07:05:46;98370.19;;;5.85
65316;BMP280;51920;53.952;10.292;2024-02-23T07:08:14;98366.69;;;5.88
65316;BMP280;51920;53.952;10.292;2024-02-23T07:10:41;98373.59;;;5.89
65316;BMP280;51920;53.952;10.292;2024-02-23T07:13:08;98382.72;;;5.95
65316;BMP280;51920;53.952;10.292;2024-02-23T07:15:35;98387.75;;;5.93
65316;BMP280;51920;53.952;10.292;2024-02-23T07:18:03;98388.97;;;5.85
65316;BMP280;51920;53.952;10.292;2024-02-23T07:20:30;98383.38;;;6.06
65316;BMP280;51920;53.952;10.292;2024-02-23T07:22:57;98404.66;;;5.90
65316;BMP280;51920;53.952;10.292;2024-02-23T07:25:24;98394.91;;;6.03
65316;BMP280;51920;53.952;10.292;2024-02-23T07:27:51;98406.00;;;6.09
65316;BMP280;51920;53.952;10.292;2024-02-23T07:30:18;98404.91;;;6.34
65316;BMP280;51920;53.952;10.292;2024-02-23T07:32:45;98414.41;;;6.42
65316;BMP280;51920;53.952;10.292;2024-02-23T07:35:14;98424.75;;;6.43
65316;BMP280;51920;53.952;10.292;2024-02-23T07:37:41;98411.31;;;6.43
65316;BMP280;51920;53.952;10.292;2024-02-23T07:40:08;98416.53;;;6.54
65316;BMP280;51920;53.952;10.292;2024-02-23T07:42:35;98417.22;;;6.62
65316;BMP280;51920;53.952;10.292;2024-02-23T07:45:05;98419.88;;;6.35
65316;BMP280;51920;53.952;10.292;2024-02-23T07:47:33;98434.53;;;6.61
65316;BMP280;51920;53.952;10.292;2024-02-23T07:50:00;98440.06;;;6.50
65316;BMP280;51920;53.952;10.292;2024-02-23T07:52:27;98435.84;;;6.49
65316;BMP280;51920;53.952;10.292;2024-02-23T07:54:54;98446.13;;;6.54
65316;BMP280;51920;53.952;10.292;2024-02-23T07:57:21;98445.97;;;6.65
65316;BMP280;51920;53.952;10.292;2024-02-23T07:59:48;98466.34;;;6.66
65316;BMP280;51920;53.952;10.292;2024-02-23T08:02:15;98459.09;;;6.63
65316;BMP280;51920;53.952;10.292;2024-02-23T08:04:42;98467.84;;;6.98
65316;BMP280;51920;53.952;10.292;2024-02-23T08:07:10;98467.56;;;6.61
65316;BMP280;51920;53.952;10.292;2024-02-23T08:09:37;98473.16;;;6.74
65316;BMP280;51920;53.952;10.292;2024-02-23T08:12:04;98489.22;;;6.78
65316;BMP280;51920;53.952;10.292;2024-02-23T08:14:31;98483.31;;;6.90
65316;BMP280;51920;53.952;10.292;2024-02-23T08:16:59;98491.78;;;6.89
65316;BMP280;51920;53.952;10.292;2024-02-23T08:19:26;98494.03;;;7.44
65316;BMP280;51920;53.952;10.292;2024-02-23T08:21:53;98498.09;;;7.56
65316;BMP280;51920;53.952;10.292;2024-02-23T08:24:20;98497.09;;;7.46
65316;BMP280;51920;53.952;10.292;2024-02-23T08:26:47;98501.00;;;7.65
65316;BMP280;51920;53.952;10.292;2024-02-23T08:29:14;98495.41;;;7.29
65316;BMP280;51920;53.952;10.292;2024-02-23T08:31:41;98504.63;;;7.55
65316;BMP280;51920;53.952;10.292;2024-02-23T08:34:08;98513.44;;;8.43
65316;BMP280;51920;53.952;10.292;2024-02-23T08:36:35;98524.41;;;8.72
65316;BMP280;51920;53.952;10.292;2024-02-23T08:39:02;98527.88;;;9.09
65316;BMP280;51920;53.952;10.292;2024-02-23T08:41:30;98530.41;;;8.43
65316;BMP280;51920;53.952;10.292;2024-02-23T08:43:57;98529.38;;;9.10
65316;BMP280;51920;53.952;10.292;2024-02-23T08:46:23;98533.41;;;9.84
65316;BMP280;51920;53.952;10.292;2024-02-23T08:48:50;98533.00;;;9.98
65316;BMP280;51920;53.952;10.292;2024-02-23T08:51:17;98534.66;;;9.79
65316;BMP280;51920;53.952;10.292;2024-02-23T08:53:44;98547.47;;;9.46
65316;BMP280;51920;53.952;10.292;2024-02-23T08:56:12;98551.59;;;9.96
65316;BMP280;51920;53.952;10.292;2024-02-23T08:58:39;98544.09;;;10.17
65316;BMP280;51920;53.952;10.292;2024-02-23T09:01:06;98552.91;;;9.59
65316;BMP280;51920;53.952;10.292;2024-02-23T09:03:33;98544.59;;;10.41
65316;BMP280;51920;53.952;10.292;2024-02-23T09:05:59;98563.16;;;9.97
65316;BMP280;51920;53.952;10.292;2024-02-23T09:08:26;98555.84;;;10.39
65316;BMP280;51920;53.952;10.292;2024-02-23T09:10:53;98569.00;;;10.66
65316;BMP280;51920;53.952;10.292;2024-02-23T09:13:20;98581.78;;;10.53
65316;BMP280;51920;53.952;10.292;2024-02-23T09:15:47;98569.44;;;10.23
65316;BMP280;51920;53.952;10.292;2024-02-23T09:18:14;98585.88;;;10.15
65316;BMP280;51920;53.952;10.292;2024-02-23T09:20:41;98586.94;;;10.47
65316;BMP280;51920;53.952;10.292;2024-02-23T09:23:08;98600.63;;;9.82
65316;BMP280;51920;53.952;10.292;2024-02-23T09:25:35;98606.84;;;10.95
65316;BMP280;51920;53.952;10.292;2024-02-23T09:28:02;98600.22;;;10.71
65316;BMP280;51920;53.952;10.292;2024-02-23T09:30:29;98603.34;;;10.82
65316;BMP280;51920;53.952;10.292;2024-02-23T09:32:56;98616.75;;;10.73
65316;BMP280;51920;53.952;10.292;2024-02-23T09:35:23;98612.97;;;9.99
65316;BMP280;51920;53.952;10.292;2024-02-23T09:37:50;98624.44;;;9.54
65316;BMP280;51920;53.952;10.292;2024-02-23T09:40:18;98625.56;;;9.73
65316;BMP280;51920;53.952;10.292;2024-02-23T09:42:55;98630.38;;;9.49
65316;BMP280;51920;53.952;10.292;2024-02-23T09:45:24;98636.41;;;9.37
65316;BMP280;51920;53.952;10.292;2024-02-23T09:47:56;98640.56;;;9.05
65316;BMP280;51920;53.952;10.292;2024-02-23T09:50:24;98643.25;;;9.05
65316;BMP280;51920;53.952;10.292;2024-02-23T09:52:51;98651.97;;;8.93
65316;BMP280;51920;53.952;10.292;2024-02-23T09:55:18;98662.88;;;8.89
65316;BMP280;51920;53.952;10.292;2024-02-23T09:57:47;98664.72;;;8.72
65316;BMP280;51920;53.952;10.292;2024-02-23T10:00:18;98674.91;;;8.64
65316;BMP280;51920;53.952;10.292;2024-02-23T10:02:45;98685.19;;;8.49
65316;BMP280;51920;53.952;10.292;2024-02-23T10:05:16;98689.63;;;8.60
65316;BMP280;51920;53.952;10.292;2024-02-23T10:07:43;98698.56;;;8.33
65316;BMP280;51920;53.952;10.292;2024-02-23T10:10:11;98691.75;;;8.25
65316;BMP280;51920;53.952;10.292;2024-02-23T10:12:37;98714.06;;;8.29
65316;BMP280;51920;53.952;10.292;2024-02-23T10:15:05;98716.44;;;8.23
65316;BMP280;51920;53.952;10.292;2024-02-23T10:17:32;98707.25;;;7.97
65316;BMP280;51920;53.952;10.292;2024-02-23T10:20:01;98717.03;;;8.11
65316;BMP280;51920;53.952;10.292;2024-02-23T10:22:31;98722.91;;;8.06
65316;BMP280;51920;53.952;10.292;2024-02-23T10:24:59;98714.88;;;8.26
65316;BMP280;51920;53.952;10.292;2024-02-23T10:27:26;98726.75;;;8.28
65316;BMP280;51920;53.952;10.292;2024-02-23T10:29:53;98724.00;;;8.32
65316;BMP280;51920;53.952;10.292;2024-02-23T10:32:20;98731.56;;;8.64
65316;BMP280;51920;53.952;10.292;2024-02-23T10:34:48;98732.88;;;9.00
65316;BMP280;51920;53.952;10.292;2024-02-23T10:37:18;98736.66;;;8.59
65316;BMP280;51920;53.952;10.292;2024-02-23T10:39:45;98741.44;;;8.95
65316;BMP280;51920;53.952;10.292;2024-02-23T10:42:12;98738.94;;;9.04
65316;BMP280;51920;53.952;10.292;2024-02-23T10:44:40;98744.97;;;9.11
65316;BMP280;51920;53.952;10.292;2024-02-23T10:47:08;98739.47;;;9.55
65316;BMP280;51920;53.952;10.292;2024-02-23T10:49:36;98750.72;;;9.34
65316;BMP280;51920;53.952;10.292;2024-02-23T10:52:03;98751.63;;;9.27
65316;BMP280;51920;53.952;10.292;2024-02-23T10:54:31;98753.28;;;9.41
65316;BMP280;51920;53.952;10.292;2024-02-23T10:56:58;98755.03;;;9.11
65316;BMP280;51920;53.952;10.292;2024-02-23T10:59:26;98762.34;;;8.90
65316;BMP280;51920;53.952;10.292;2024-02-23T11:01:54;98770.25;;;9.21
65316;BMP280;51920;53.952;10.292;2024-02-23T11:04:25;98762.69;;;9.32
65316;BMP280;51920;53.952;10.292;2024-02-23T11:06:56;98761.38;;;9.41
65316;BMP280;51920;53.952;10.292;2024-02-23T11:09:25;98762.06;;;9.45
65316;BMP280;51920;53.952;10.292;2024-02-23T11:11:58;98755.03;;;9.11
65316;BMP280;51920;53.952;10.292;2024-02-23T11:14:36;98765.94;;;9.04
65316;BMP280;51920;53.952;10.292;2024-02-23T11:17:03;98761.38;;;9.41
65316;BMP280;51920;53.952;10.292;2024-02-23T11:19:34;98764.16;;;9.17
65316;BMP280;51920;53.952;10.292;2024-02-23T11:22:03;98760.47;;;8.87
65316;BMP280;51920;53.952;10.292;2024-02-23T11:24:31;98774.78;;;9.04
65316;BMP280;51920;53.952;10.292;2024-02-23T11:26:59;98768.72;;;9.00
65316;BMP280;51920;53.952;10.292;2024-02-23T11:29:29;98778.63;;;9.07
65316;BMP280;51920;53.952;10.292;2024-02-23T11:31:56;98771.09;;;9.18
65316;BMP280;51920;53.952;10.292;2024-02-23T11:34:30;98776.00;;;9.23
65316;BMP280;51920;53.952;10.292;2024-02-23T11:36:57;98772.25;;;9.17
65316;BMP280;51920;53.952;10.292;2024-02-23T11:39:26;98785.25;;;9.02
65316;BMP280;51920;53.952;10.292;2024-02-23T11:41:53;98781.22;;;8.90
65316;BMP280;51920;53.952;10.292;2024-02-23T11:44:20;98778.22;;;8.85
65316;BMP280;51920;53.952;10.292;2024-02-23T11:46:48;98780.06;;;8.92
65316;BMP280;51920;53.952;10.292;2024-02-23T11:49:15;98780.59;;;9.03
65316;BMP280;51920;53.952;10.292;2024-02-23T11:51:43;98781.88;;;9.18
65316;BMP280;51920;53.952;10.292;2024-02-23T11:54:11;98772.13;;;9.44
65316;BMP280;51920;53.952;10.292;2024-02-23T11:56:40;98764.91;;;9.58
65316;BMP280;51920;53.952;10.292;2024-02-23T11:59:08;98774.94;;;9.57
65316;BMP280;51920;53.952;10.292;2024-02-23T12:01:34;98782.19;;;9.40
65316;BMP280;51920;53.952;10.292;2024-02-23T12:04:01;98786.75;;;9.27
65316;BMP280;51920;53.952;10.292;2024-02-23T12:06:29;98781.47;;;9.00
65316;BMP280;51920;53.952;10.292;2024-02-23T12:08:57;98787.91;;;9.06
65316;BMP280;51920;53.952;10.292;2024-02-23T12:11:24;98771.50;;;9.17
65316;BMP280;51920;53.952;10.292;2024-02-23T12:13:51;98775.00;;;9.14
65316;BMP280;51920;53.952;10.292;2024-02-23T12:16:20;98773.78;;;9.18
65316;BMP280;51920;53.952;10.292;2024-02-23T12:18:55;98769.53;;;8.97
65316;BMP280;51920;53.952;10.292;2024-02-23T12:21:23;98767.84;;;9.07
65316;BMP280;51920;53.952;10.292;2024-02-23T12:23:50;98768.94;;;9.09
65316;BMP280;51920;53.952;10.292;2024-02-23T12:26:17;98766.34;;;9.22
65316;BMP280;51920;53.952;10.292;2024-02-23T12:28:45;98754.53;;;9.16
65316;BMP280;51920;53.952;10.292;2024-02-23T12:31:15;98772.19;;;9.21
65316;BMP280;51920;53.952;10.292;2024-02-23T12:33:42;98776.50;;;9.18
65316;BMP280;51920;53.952;10.292;2024-02-23T12:36:15;98779.41;;;9.27
65316;BMP280;51920;53.952;10.292;2024-02-23T12:38:41;98769.81;;;9.03
65316;BMP280;51920;53.952;10.292;2024-02-23T12:41:08;98785.38;;;8.95
65316;BMP280;51920;53.952;10.292;2024-02-23T12:43:35;98774.88;;;9.01
65316;BMP280;51920;53.952;10.292;2024-02-23T12:46:04;98777.03;;;9.09
65316;BMP280;51920;53.952;10.292;2024-02-23T12:48:30;98785.19;;;9.06
65316;BMP280;51920;53.952;10.292;2024-02-23T12:50:57;98789.91;;;9.02
65316;BMP280;51920;53.952;10.292;2024-02-23T12:53:40;98787.34;;;8.95
65316;BMP280;51920;53.952;10.292;2024-02-23T12:56:12;98786.91;;;8.96
65316;BMP280;51920;53.952;10.292;2024-02-23T12:58:41;98785.00;;;9.17
65316;BMP280;51920;53.952;10.292;2024-02-23T13:01:08;98783.09;;;8.94
65316;BMP280;51920;53.952;10.292;2024-02-23T13:03:37;98783.38;;;8.99
65316;BMP280;51920;53.952;10.292;2024-02-23T13:06:04;98781.94;;;8.95
65316;BMP280;51920;53.952;10.292;2024-02-23T13:08:31;98783.84;;;8.94
65316;BMP280;51920;53.952;10.292;2024-02-23T13:10:58;98783.03;;;8.97
65316;BMP280;51920;53.952;10.292;2024-02-23T13:13:25;98788.91;;;8.92
65316;BMP280;51920;53.952;10.292;2024-02-23T13:15:53;98795.19;;;8.85
65316;BMP280;51920;53.952;10.292;2024-02-23T13:18:20;98801.56;;;8.75
65316;BMP280;51920;53.952;10.292;2024-02-23T13:20:47;98802.66;;;8.78
65316;BMP280;51920;53.952;10.292;2024-02-23T13:23:14;98805.63;;;8.83
65316;BMP280;51920;53.952;10.292;2024-02-23T13:25:42;98815.41;;;8.77
65316;BMP280;51920;53.952;10.292;2024-02-23T13:28:09;98818.28;;;8.66
65316;BMP280;51920;53.952;10.292;2024-02-23T13:30:37;98818.38;;;8.83
65316;BMP280;51920;53.952;10.292;2024-02-23T13:33:04;98824.06;;;8.88
65316;BMP280;51920;53.952;10.292;2024-02-23T13:35:33;98823.53;;;8.97
65316;BMP280;51920;53.952;10.292;2024-02-23T13:38:00;98817.50;;;8.89
65316;BMP280;51920;53.952;10.292;2024-02-23T13:40:30;98825.47;;;8.97
65316;BMP280;51920;53.952;10.292;2024-02-23T13:42:58;98831.75;;;8.90
65316;BMP280;51920;53.952;10.292;2024-02-23T13:45:26;98833.63;;;8.93
65316;BMP280;51920;53.952;10.292;2024-02-23T13:48:02;98832.63;;;8.83
65316;BMP280;51920;53.952;10.292;2024-02-23T13:50:30;98836.06;;;8.87
65316;BMP280;51920;53.952;10.292;2024-02-23T13:52:57;98832.97;;;8.85
65316;BMP280;51920;53.952;10.292;2024-02-23T13:55:24;98839.81;;;8.70
65316;BMP280;51920;53.952;10.292;2024-02-23T13:57:51;98840.09;;;8.76
65316;BMP280;51920;53.952;10.292;2024-02-23T14:00:19;98838.38;;;8.62
65316;BMP280;51920;53.952;10.292;2024-02-23T14:02:47;98837.22;;;8.63
65316;BMP280;51920;53.952;10.292;2024-02-23T14:05:14;98846.88;;;8.60
65316;BMP280;51920;53.952;10.292;2024-02-23T14:07:42;98836.09;;;8.60
65316;BMP280;51920;53.952;10.292;2024-02-23T14:10:09;98846.94;;;8.57